Overview Statistics Trail Chart Weather Telemetry Raw packets
 

This is the latest recevied weather packets stored in our database for station/object KO6HRZ. If no packets are shown the sender has not sent any weather packets the latest 10 day(s).

<< 25 26 27 28 29 30 31 >>
Time Temp. Humidity Pressure Rain* Wind** Luminosity Snow
1788295642 25° C 47% 1013.8 hPa 0 mm - 520 W/m² -
1788295027 25° C 48% 1014.1 hPa 0 mm - 696 W/m² -
1788294426 24.44° C 49% 1013.8 hPa 0 mm - 407 W/m² -
1788293824 25° C 47% 1014.2 hPa 0 mm - 361 W/m² -
1788293223 26.11° C 46% 1014.2 hPa 0 mm - 566 W/m² -
1788292621 25.56° C 47% 1014.2 hPa 0 mm - 799 W/m² -
1788292018 25.56° C 49% 1014.4 hPa 0 mm - 707 W/m² -
1788291414 24.44° C 51% 1014.5 hPa 0 mm - 360 W/m² -
1788290814 23.89° C 52% 1014.5 hPa 0 mm - 317 W/m² -
1788290211 23.89° C 52% 1014.6 hPa 0 mm - 465 W/m² -
1788289609 24.44° C 50% 1014.6 hPa 0 mm - 845 W/m² -
1788289007 23.33° C 54% 1014.7 hPa 0 mm - 704 W/m² -
1788288401 23.33° C 55% 1014.7 hPa 0 mm - 668 W/m² -
1788287797 22.78° C 55% 1014.8 hPa 0 mm - 251 W/m² -
1788287194 22.78° C 55% 1014.8 hPa 0 mm - 484 W/m² -
1788286593 22.22° C 58% 1014.9 hPa 0 mm - 315 W/m² -
1788285994 22.78° C 58% 1014.7 hPa 0 mm - 273 W/m² -
1788285392 22.22° C 58% 1014.7 hPa 0 mm - 226 W/m² -
1788284788 21.67° C 60% 1014.5 hPa 0 mm - 600 W/m² -
1788284185 21.67° C 60% 1014.5 hPa 0 mm - 231 W/m² -
1788283593 21.67° C 60% 1014.5 hPa 0 mm - 447 W/m² -
1788282979 22.78° C 59% 1014.5 hPa 0 mm - 393 W/m² -
1788282379 21.67° C 61% 1014.4 hPa 0 mm - 514 W/m² -
1788281778 21.11° C 64% 1014.3 hPa 0 mm - 436 W/m² -
1788281175 21.11° C 64% 1014.3 hPa 0 mm - 452 W/m² -

* Rain latest hour (hover to see other rain measurements)
** Current wind speed in m/s (hover to see current wind gust speed)